Terminal Aerodrome Forecast
Issued by NWS North Platte, NE

Home | Current Version | Previous Version | Text Only | Print | Product List | Glossary On
Versions: 1 2 3 4 5 6 7 8 9 10 11 12 13 14 15 16 17 18 19 20 21 22 23 24 25
103
FTUS43 KLBF 241141
TAFLBF
TAF
KLBF 241141Z 2412/2512 VRB06KT P6SM SCT150
     FM241700 11008KT P6SM BKN250
     FM242200 11012KT P6SM SCT100 BKN250
     FM250100 11012KT P6SM BKN100 PROB30 2503/2507 VRB25G45KT 3SM
      +TSRAGS BKN040CB
     FM250700 11008KT P6SM VCTS BKN050CB
     FM250900 09005KT P6SM SCT050 BKN250=

USA.gov is the U.S. government's official web portal to all federal, state and local government web resources and services.